Time;durP1;ratioP1;P1;durP2;ratioP2;P2;SDS_P1;SDS_P2;PMS_P1;PMS_P2;Temp;Humidity;BMP_temperature;BMP_pressure;BME280_temperature;BME280_humidity;BME280_pressure;Samples;Min_cycle;Max_cycle;Signal;HPM_P1;HPM_P2
2023/03/31 00:01:25;;;;;;;31.50;6.18;;;;;;;;;;5026054;28;20420;-78
2023/03/31 00:04:00;;;;;;;24.95;5.10;;;;;;;;;;5082435;28;20425;-79
2023/03/31 00:06:27;;;;;;;28.92;5.78;;;;;;;;;;5107546;27;20731;-79
2023/03/31 00:08:53;;;;;;;28.17;5.97;;;;;;;;;;5071225;28;20425;-79
2023/03/31 00:11:21;;;;;;;34.35;6.22;;;;;;;;;;5095165;28;20414;-78
2023/03/31 00:13:47;;;;;;;31.80;6.18;;;;;;;;;;5060870;28;20423;-78
2023/03/31 00:16:13;;;;;;;29.15;5.53;;;;;;;;;;5058087;28;20598;-78
2023/03/31 00:18:46;;;;;;;31.58;6.30;;;;;;;;;;5062312;28;20433;-77
2023/03/31 00:21:23;;;;;;;28.80;5.93;;;10.50;99.90;;;;;;5042448;28;20425;-78
2023/03/31 00:23:54;;;;;;;26.53;6.07;;;10.70;99.90;;;;;;5064075;28;20508;-77
2023/03/31 00:26:21;;;;;;;26.00;5.93;;;;;;;;;;5048722;28;20414;-77
2023/03/31 00:28:51;;;;;;;30.25;6.05;;;;;;;;;;5064127;28;20410;-77
2023/03/31 00:31:17;;;;;;;29.80;6.27;;;;;;;;;;5067223;28;20431;-78
2023/03/31 00:33:43;;;;;;;26.88;5.60;;;;;;;;;;5077610;28;21006;-78
2023/03/31 00:36:09;;;;;;;24.60;5.63;;;;;;;;;;5054625;28;20758;-78
2023/03/31 00:38:35;;;;;;;32.57;6.03;;;;;;;;;;5081599;28;20597;-78
2023/03/31 00:41:02;;;;;;;24.90;5.82;;;;;;;;;;5086341;28;20428;-78
2023/03/31 00:43:33;;;;;;;31.30;6.50;;;;;;;;;;5072432;28;20426;-79
2023/03/31 00:46:19;;;;;;;30.25;5.88;;;;;;;;;;5087434;28;20460;-78
2023/03/31 00:48:50;;;;;;;27.08;5.53;;;10.30;99.90;;;;;;5063973;28;20428;-78
2023/03/31 00:51:18;;;;;;;27.13;5.72;;;10.40;99.90;;;;;;5095957;28;20433;-78
2023/03/31 00:53:48;;;;;;;26.95;5.50;;;;;;;;;;5089255;28;20459;-77
2023/03/31 00:56:16;;;;;;;29.25;5.65;;;;;;;;;;5089506;28;20905;-77
2023/03/31 00:58:42;;;;;;;25.85;5.53;;;;;;;;;;5089555;28;20480;-77
2023/03/31 01:01:13;;;;;;;25.55;5.57;;;;;;;;;;5065765;28;20430;-76
2023/03/31 01:03:39;;;;;;;27.77;5.50;;;;;;;;;;5087110;28;20788;-76
2023/03/31 01:06:09;;;;;;;27.17;5.32;;;;;;;;;;5068988;28;20711;-79
2023/03/31 01:08:36;;;;;;;26.23;5.15;;;;;;;;;;5068288;28;20753;-79
2023/03/31 01:11:06;;;;;;;25.75;5.47;;;;;;;;;;5044603;28;20423;-79
2023/03/31 01:13:35;;;;;;;28.27;6.00;;;;;;;;;;5064398;28;20844;-78
2023/03/31 01:16:01;;;;;;;26.48;5.40;;;;;;;;;;5062875;28;20791;-78
2023/03/31 01:18:28;;;;;;;25.60;5.50;;;9.60;99.90;;;;;;5035912;28;20519;-78
2023/03/31 01:20:57;;;;;;;26.25;5.63;;;;;;;;;;5050817;28;20915;-78
2023/03/31 01:23:42;;;;;;;31.67;5.80;;;;;;;;;;5055949;28;20429;-78
2023/03/31 01:26:23;;;;;;;29.40;5.38;;;;;;;;;;5066356;28;20415;-78
2023/03/31 01:28:58;;;;;;;26.90;5.22;;;;;;;;;;5048695;28;20490;-79
2023/03/31 01:31:40;;;;;;;29.43;5.70;;;;;;;;;;5069545;28;20415;-79
2023/03/31 01:34:06;;;;;;;27.38;5.35;;;;;;;;;;5055430;28;20918;-78
2023/03/31 01:36:38;;;;;;;22.88;5.22;;;;;;;;;;5049959;28;20417;-79
2023/03/31 01:39:41;;;;;;;26.45;5.50;;;9.80;99.90;;;;;;5055392;28;20455;-79
2023/03/31 01:42:19;;;;;;;28.02;5.00;;;;;;;;;;5048274;28;20429;-85
2023/03/31 01:44:51;;;;;;;25.58;5.55;;;;;;;;;;5105489;28;20412;-85
2023/03/31 01:47:21;;;;;;;24.05;4.80;;;;;;;;;;5073461;28;20416;-84
2023/03/31 01:49:59;;;;;;;28.50;5.63;;;;;;;;;;5073654;28;20528;-85
2023/03/31 01:52:29;;;;;;;25.17;5.53;;;;;;;;;;5073039;28;20907;-84
2023/03/31 01:55:01;;;;;;;24.88;4.72;;;;;;;;;;5071301;28;20506;-84
2023/03/31 01:57:30;;;;;;;23.30;4.87;;;;;;;;;;5062615;28;20413;-84
2023/03/31 01:59:59;;;;;;;24.67;5.50;;;;;;;;;;5054727;28;20772;-85
2023/03/31 02:02:28;;;;;;;28.17;5.50;;;;;;;;;;5054118;28;20458;-85
2023/03/31 02:04:59;;;;;;;23.27;4.78;;;;;;;;;;5046047;28;20421;-85
2023/03/31 02:07:40;;;;;;;23.27;4.63;;;9.70;99.90;;;;;;5058292;28;20792;-84
2023/03/31 02:10:07;;;;;;;23.90;5.00;;;;;;;;;;5055887;28;20419;-83
2023/03/31 02:12:34;;;;;;;25.55;4.53;;;;;;;;;;5072373;28;20528;-84
2023/03/31 02:15:04;;;;;;;24.07;4.80;;;9.20;99.90;;;;;;5069453;28;20924;-84
2023/03/31 02:17:31;;;;;;;22.67;4.72;;;;;;;;;;5061223;28;20431;-84
2023/03/31 02:20:00;;;;;;;26.60;4.93;;;;;;;;;;5073387;28;20400;-85
2023/03/31 02:22:30;;;;;;;28.10;5.60;;;9.60;99.90;;;;;;5054196;28;20423;-84
2023/03/31 02:24:57;;;;;;;24.27;4.83;;;;;;;;;;5054632;28;20876;-84
2023/03/31 02:27:30;;;;;;;24.67;4.20;;;9.60;99.90;;;;;;5056035;28;20451;-84
2023/03/31 02:29:56;;;;;;;23.63;5.10;;;;;;;;;;5068814;28;20431;-84
2023/03/31 02:32:26;;;;;;;22.90;4.80;;;;;;;;;;5070509;28;20419;-85
2023/03/31 02:34:53;;;;;;;21.65;4.57;;;;;;;;;;5060128;28;20920;-84
2023/03/31 02:37:20;;;;;;;25.27;4.80;;;;;;;;;;5057281;28;20415;-84
2023/03/31 02:39:48;;;;;;;24.23;4.80;;;;;;;;;;5070495;28;20428;-83
2023/03/31 02:42:14;;;;;;;25.33;4.95;;;;;;;;;;5064674;28;20425;-84
2023/03/31 02:44:41;;;;;;;20.07;4.73;;;;;;;;;;5076835;28;20399;-84
2023/03/31 02:47:08;;;;;;;26.52;5.05;;;;;;;;;;5052293;28;20411;-85
2023/03/31 02:49:36;;;;;;;23.80;4.97;;;;;;;;;;5064028;28;20483;-83
2023/03/31 02:52:08;;;;;;;22.65;4.35;;;;;;;;;;5054180;28;20458;-84
2023/03/31 02:54:46;;;;;;;21.55;4.75;;;;;;;;;;5066468;28;20411;-83
2023/03/31 02:57:24;;;;;;;23.65;4.85;;;;;;;;;;5071650;28;20400;-83
2023/03/31 03:00:12;;;;;;;20.60;4.60;;;;;;;;;;5067076;28;20771;-83
2023/03/31 03:02:57;;;;;;;23.83;4.93;;;;;;;;;;5025195;28;20433;-83
2023/03/31 03:05:39;;;;;;;24.58;5.22;;;;;;;;;;5036379;28;20401;-83
2023/03/31 03:08:18;;;;;;;19.70;5.07;;;;;;;;;;5079515;28;20486;-83
2023/03/31 03:11:27;;;;;;;20.23;4.78;;;9.80;99.90;;;;;;5074891;28;20766;-84
2023/03/31 03:14:11;;;;;;;21.77;5.07;;;9.70;99.90;;;;;;5050288;28;20747;-84
2023/03/31 03:16:43;;;;;;;21.38;4.40;;;;;;;;;;5109564;28;20390;-83
2023/03/31 03:19:09;;;;;;;21.83;4.30;;;;;;;;;;5074175;28;20426;-83
2023/03/31 03:21:35;;;;;;;21.23;5.03;;;;;;;;;;5074392;28;20421;-83
2023/03/31 03:24:01;;;;;;;22.48;4.53;;;;;;;;;;5057076;28;20918;-83
2023/03/31 03:26:28;;;;;;;21.67;4.80;;;;;;;;;;5072335;28;20395;-83
2023/03/31 03:28:55;;;;;;;21.40;4.88;;;;;;;;;;5103095;28;20483;-83
2023/03/31 03:31:22;;;;;;;20.90;4.87;;;;;;;;;;5074310;28;20765;-84
2023/03/31 03:33:52;;;;;;;21.17;4.90;;;;;;;;;;5085767;28;20425;-83
2023/03/31 03:36:18;;;;;;;19.88;4.80;;;;;;;;;;5103639;28;20418;-84
2023/03/31 03:38:44;;;;;;;19.05;4.85;;;;;;;;;;5072279;28;20404;-84
2023/03/31 03:41:10;;;;;;;17.45;4.47;;;;;;;;;;5070747;28;20426;-83
2023/03/31 03:43:36;;;;;;;13.68;4.32;;;;;;;;;;5088037;28;20420;-82
2023/03/31 03:46:02;;;;;;;19.50;4.72;;;;;;;;;;5073855;28;20956;-83
2023/03/31 03:48:28;;;;;;;15.75;4.80;;;;;;;;;;5074814;28;20758;-83
2023/03/31 03:50:54;;;;;;;18.65;5.03;;;;;;;;;;5053986;28;20460;-83
2023/03/31 03:53:20;;;;;;;19.30;5.60;;;;;;;;;;5069447;28;20413;-83
2023/03/31 03:55:48;;;;;;;17.10;5.30;;;;;;;;;;5071501;28;20743;-81
2023/03/31 03:58:15;;;;;;;16.30;5.40;;;;;;;;;;5071321;28;20406;-81
2023/03/31 04:00:41;;;;;;;15.35;5.40;;;;;;;;;;5040236;28;20504;-83
2023/03/31 04:03:07;;;;;;;19.17;5.20;;;;;;;;;;5072590;28;20460;-81
2023/03/31 04:05:33;;;;;;;18.27;5.70;;;;;;;;;;5072253;28;20413;-81
2023/03/31 04:07:59;;;;;;;17.90;5.55;;;;;;;;;;5065895;28;20402;-77
2023/03/31 04:10:25;;;;;;;18.67;5.93;;;;;;;;;;5072516;28;20944;-77
2023/03/31 04:12:51;;;;;;;19.80;6.35;;;;;;;;;;5071352;28;20413;-77
2023/03/31 04:15:17;;;;;;;19.45;6.57;;;;;;;;;;5072512;28;20413;-78
2023/03/31 04:17:49;;;;;;;16.53;6.20;;;;;;;;;;5071846;28;20421;-78
2023/03/31 04:20:16;;;;;;;20.73;7.00;;;;;;;;;;5069688;28;20807;-77
2023/03/31 04:22:45;;;;;;;18.42;7.07;;;;;;;;;;5073637;28;20501;-78
2023/03/31 04:25:15;;;;;;;20.67;7.78;;;;;;;;;;5087122;28;20419;-78
2023/03/31 04:27:49;;;;;;;17.65;7.20;;;;;;;;;;5065363;28;20768;-77
2023/03/31 04:30:21;;;;;;;20.55;8.05;;;;;;;;;;5071140;28;20852;-76
2023/03/31 04:32:52;;;;;;;20.77;8.10;;;;;;;;;;5086253;28;20508;-77
2023/03/31 04:35:19;;;;;;;21.95;8.57;;;;;;;;;;5069706;28;20418;-77
2023/03/31 04:37:46;;;;;;;24.10;9.20;;;;;;;;;;5090412;28;20438;-77
2023/03/31 04:40:12;;;;;;;21.95;8.65;;;;;;;;;;5056842;28;20500;-78
2023/03/31 04:42:38;;;;;;;20.70;8.83;;;;;;;;;;5070390;28;20928;-78
2023/03/31 04:45:05;;;;;;;16.38;8.82;;;;;;;;;;5075594;28;20417;-78
2023/03/31 04:47:31;;;;;;;21.80;8.90;;;;;;;;;;5075293;28;20757;-78
2023/03/31 04:49:57;;;;;;;21.13;8.60;;;;;;;;;;5075415;28;20532;-79
2023/03/31 04:52:23;;;;;;;18.73;8.45;;;;;;;;;;5091076;28;20424;-78
2023/03/31 04:54:49;;;;;;;20.88;8.35;;;;;;;;;;5070771;28;20938;-78
2023/03/31 04:57:15;;;;;;;22.10;8.80;;;;;;;;;;5099134;28;21023;-78
2023/03/31 04:59:41;;;;;;;21.55;8.95;;;;;;;;;;5073893;28;20789;-78
2023/03/31 05:02:07;;;;;;;18.00;8.10;;;;;;;;;;5040838;28;21116;-77
2023/03/31 05:04:33;;;;;;;22.15;8.90;;;;;;;;;;5073039;28;20879;-78
2023/03/31 05:06:59;;;;;;;24.60;9.07;;;;;;;;;;5078069;28;20410;-78
2023/03/31 05:09:25;;;;;;;24.25;9.40;;;;;;;;;;5092132;28;20417;-77
2023/03/31 05:11:51;;;;;;;23.60;10.18;;;;;;;;;;5057654;28;20415;-78
2023/03/31 05:14:17;;;;;;;20.65;8.93;;;;;;;;;;5037849;28;20445;-78
2023/03/31 05:16:43;;;;;;;25.02;10.25;;;;;;;;;;5094373;28;20469;-77
2023/03/31 05:19:10;;;;;;;22.20;9.30;;;;;;;;;;5093985;28;20479;-77
2023/03/31 05:21:37;;;;;;;24.38;9.90;;;;;;;;;;5093721;28;20398;-78
2023/03/31 05:24:03;;;;;;;21.60;9.70;;;;;;;;;;5058808;28;20429;-78
2023/03/31 05:26:29;;;;;;;64.32;12.10;;;;;;;;;;5074260;28;20490;-77
2023/03/31 05:28:55;;;;;;;18.48;8.95;;;;;;;;;;5077072;28;20422;-78
2023/03/31 05:31:22;;;;;;;23.83;9.30;;;;;;;;;;5068526;28;20479;-78
2023/03/31 05:33:48;;;;;;;30.80;9.98;;;;;;;;;;5084342;28;20466;-78
2023/03/31 05:36:15;;;;;;;29.98;9.60;;;;;;;;;;5064035;28;20415;-77
2023/03/31 05:38:41;;;;;;;22.80;8.77;;;;;;;;;;5085010;28;20425;-77
2023/03/31 05:41:08;;;;;;;27.48;16.08;;;;;;;;;;5073816;28;20398;-77
2023/03/31 05:43:35;;;;;;;21.95;9.32;;;;;;;;;;5077585;28;21002;-78
2023/03/31 05:46:01;;;;;;;136.47;16.43;;;;;;;;;;5073348;28;20654;-77
2023/03/31 05:48:27;;;;;;;18.92;7.45;;;;;;;;;;5058715;28;20425;-78
2023/03/31 05:50:57;;;;;;;15.20;6.63;;;;;;;;;;5094518;28;20394;-77
2023/03/31 05:53:23;;;;;;;12.85;6.10;;;;;;;;;;5058748;28;20487;-77
2023/03/31 05:55:49;;;;;;;14.82;6.75;;;;;;;;;;5077311;28;20468;-78
2023/03/31 05:58:16;;;;;;;35.40;7.67;;;;;;;;;;5094188;28;20429;-78
2023/03/31 06:00:43;;;;;;;16.45;6.28;;;;;;;;;;5086980;28;20522;-78
2023/03/31 06:03:09;;;;;;;15.63;6.60;;;;;;;;;;5073457;28;20923;-78
2023/03/31 06:05:35;;;;;;;16.38;7.03;;;;;;;;;;5100713;28;21046;-78
2023/03/31 06:08:02;;;;;;;56.05;9.70;;;;;;;;;;5082236;28;20812;-78
2023/03/31 06:10:28;;;;;;;18.80;7.05;;;;;;;;;;5088715;28;20479;-78
2023/03/31 06:12:54;;;;;;;17.67;6.93;;;;;;;;;;5054775;28;20421;-78
2023/03/31 06:15:20;;;;;;;17.55;7.00;;;;;;;;;;5058611;28;20410;-77
2023/03/31 06:17:46;;;;;;;16.02;7.40;;;;;;;;;;5089177;28;20424;-77
2023/03/31 06:20:13;;;;;;;14.67;7.50;;;;;;;;;;5058161;28;20758;-78
2023/03/31 06:22:39;;;;;;;16.58;7.22;;;;;;;;;;5070884;28;20430;-78
2023/03/31 06:25:05;;;;;;;17.13;6.90;;;;;;;;;;5055228;28;20420;-78
2023/03/31 06:27:31;;;;;;;34.77;8.73;;;;;;;;;;5058382;28;20545;-78
2023/03/31 06:29:57;;;;;;;134.70;15.05;;;;;;;;;;5067638;28;20461;-78
2023/03/31 06:32:23;;;;;;;15.88;7.50;;;;;;;;;;5040873;28;20417;-78
2023/03/31 06:34:49;;;;;;;13.98;6.80;;;;;;;;;;5079550;28;20496;-79
2023/03/31 06:37:15;;;;;;;19.70;7.05;;;;;;;;;;5077307;28;20930;-79
2023/03/31 06:39:43;;;;;;;14.23;6.55;;;;;;;;;;5088698;28;20563;-78
2023/03/31 06:42:09;;;;;;;40.88;8.65;;;;;;;;;;5055462;28;20409;-78
2023/03/31 06:44:35;;;;;;;11.55;6.05;;;;;;;;;;5069449;28;20422;-79
2023/03/31 06:47:01;;;;;;;14.73;5.43;;;;;;;;;;5074007;28;20433;-79
2023/03/31 06:49:27;;;;;;;14.40;6.10;;;;;;;;;;5037882;28;20770;-78
2023/03/31 06:51:53;;;;;;;13.77;5.90;;;;;;;;;;5073987;28;20425;-78
2023/03/31 06:54:19;;;;;;;14.70;6.00;;;;;;;;;;5068227;28;20425;-78
2023/03/31 06:56:46;;;;;;;11.00;5.25;;;;;;;;;;5107631;28;20483;-79
2023/03/31 06:59:12;;;;;;;17.13;6.05;;;;;;;;;;5089154;28;20551;-78
2023/03/31 07:01:38;;;;;;;15.80;5.78;;;;;;;;;;5061517;28;20412;-77
2023/03/31 07:04:04;;;;;;;12.65;5.88;;;;;;;;;;5093719;28;20426;-78
2023/03/31 07:06:30;;;;;;;14.70;6.63;;;;;;;;;;5080312;28;20418;-78
2023/03/31 07:08:56;;;;;;;14.07;6.83;;;;;;;;;;5073601;28;20417;-78
2023/03/31 07:11:22;;;;;;;14.70;6.50;;;;;;;;;;5060433;28;20412;-78
2023/03/31 07:13:49;;;;;;;12.32;6.60;;;;;;;;;;5056046;28;20408;-77
2023/03/31 07:16:15;;;;;;;17.02;6.90;;;;;;;;;;5053319;28;20430;-78
2023/03/31 07:18:41;;;;;;;13.30;7.05;;;;;;;;;;5097609;28;20980;-78
2023/03/31 07:21:07;;;;;;;14.43;7.40;;;;;;;;;;5060197;28;20502;-77
2023/03/31 07:23:34;;;;;;;12.32;6.45;;;;;;;;;;5057766;28;20505;-77
2023/03/31 07:26:01;;;;;;;15.80;7.28;;;;;;;;;;5070687;28;20924;-77
2023/03/31 07:28:31;;;;;;;14.88;6.68;;;;;;;;;;5056284;28;20454;-78
2023/03/31 07:30:57;;;;;;;13.52;6.78;;;;;;;;;;5088523;28;20439;-77
2023/03/31 07:33:23;;;;;;;13.93;7.00;;;;;;;;;;5071120;28;20463;-77
2023/03/31 07:35:49;;;;;;;14.55;6.70;;;;;;;;;;5063129;28;20448;-78
2023/03/31 07:38:15;;;;;;;86.15;12.38;;;;;;;;;;5080182;28;20806;-77
2023/03/31 07:40:43;;;;;;;12.20;6.30;;;;;;;;;;5094596;28;20413;-78
2023/03/31 07:43:09;;;;;;;13.30;6.22;;;;;;;;;;5054948;28;20494;-77
2023/03/31 07:45:35;;;;;;;14.35;6.53;;;;;;;;;;5058925;28;20422;-77
2023/03/31 07:48:01;;;;;;;13.25;6.55;;;;;;;;;;5081000;28;20798;-77
2023/03/31 07:50:27;;;;;;;13.10;6.22;;;;;;;;;;5088986;28;20889;-77
2023/03/31 07:52:53;;;;;;;12.10;6.60;;;;;;;;;;5062465;28;20422;-78
2023/03/31 07:55:20;;;;;;;14.95;7.10;;;;;;;;;;5082543;28;20934;-78
2023/03/31 07:57:46;;;;;;;43.60;8.50;;;;;;;;;;5045911;28;20419;-77
2023/03/31 08:00:13;;;;;;;14.63;6.10;;;;;;;;;;5081337;28;20498;-77
2023/03/31 08:02:44;;;;;;;14.47;6.20;;;;;;;;;;5040872;28;20465;-78
2023/03/31 08:05:11;;;;;;;12.77;5.85;;;;;;;;;;5075410;28;20424;-78
2023/03/31 08:07:38;;;;;;;11.20;5.50;;;;;;;;;;5070594;28;20563;-78
2023/03/31 08:10:05;;;;;;;14.13;5.60;;;;;;;;;;5089433;28;20442;-79
2023/03/31 08:12:31;;;;;;;13.65;5.65;;;;;;;;;;5098626;28;20917;-78
2023/03/31 08:14:57;;;;;;;12.70;5.25;;;;;;;;;;5054111;28;20774;-78
2023/03/31 08:17:23;;;;;;;23.10;6.55;;;;;;;;;;5065601;28;20405;-79
2023/03/31 08:19:50;;;;;;;14.15;5.35;;;;;;;;;;5068726;28;20543;-78
2023/03/31 08:22:17;;;;;;;12.02;5.07;;;;;;;;;;5077408;28;20510;-78
2023/03/31 08:24:43;;;;;;;12.40;5.40;;;;;;;;;;5053206;28;20480;-77
2023/03/31 08:27:09;;;;;;;9.70;4.97;;;;;;;;;;5055803;28;20631;-77
2023/03/31 08:29:35;;;;;;;10.25;4.35;;;;;;;;;;5055022;28;20463;-77
2023/03/31 08:32:01;;;;;;;10.53;4.57;;;;;;;;;;5064735;28;20498;-79
2023/03/31 08:34:27;;;;;;;11.70;4.88;;;;;;;;;;5063988;28;20431;-78
2023/03/31 08:36:54;;;;;;;10.20;4.45;;;;;;;;;;5076798;28;20501;-79
2023/03/31 08:39:20;;;;;;;12.52;4.90;;;;;;;;;;5072478;28;21260;-79
2023/03/31 08:41:49;;;;;;;12.18;4.65;;;;;;;;;;5072017;28;20467;-82
2023/03/31 08:44:30;;;;;;;15.07;4.73;;;;;;;;;;5072762;28;20499;-82
2023/03/31 08:46:58;;;;;;;14.48;4.90;;;;;;;;;;5086364;28;20456;-79
2023/03/31 08:49:25;;;;;;;14.90;4.88;;;;;;;;;;5069012;28;20929;-79
2023/03/31 08:51:58;;;;;;;13.05;5.05;;;;;;;;;;5082544;28;20412;-79
2023/03/31 08:54:31;;;;;;;10.88;4.47;;;;;;;;;;5080222;28;21172;-78
2023/03/31 08:56:57;;;;;;;12.73;5.32;;;;;;;;;;5080436;28;20974;-78
2023/03/31 08:59:29;;;;;;;14.15;5.35;;;;;;;;;;5071983;28;20425;-78
2023/03/31 09:02:24;;;;;;;11.23;4.43;;;;;;;;;;5105828;28;20788;-79
2023/03/31 09:05:06;;;;;;;12.20;4.78;;;;;;;;;;5035322;28;20428;-79
2023/03/31 09:07:38;;;;;;;12.07;4.70;;;;;;;;;;5078431;28;20476;-79
2023/03/31 09:10:04;;;;;;;13.43;5.03;;;;;;;;;;5070802;28;20421;-79
2023/03/31 09:12:37;;;;;;;12.80;5.00;;;;;;;;;;5069519;28;20992;-79
2023/03/31 09:15:04;;;;;;;10.77;4.70;;;;;;;;;;5048277;28;20488;-79
2023/03/31 09:17:32;;;;;;;12.43;5.25;;;;;;;;;;5065748;28;20428;-79
2023/03/31 09:20:13;;;;;;;10.43;5.13;;;;;;;;;;5070336;28;20422;-78
2023/03/31 09:22:41;;;;;;;14.97;5.30;;;;;;;;;;5071349;28;20538;-79
2023/03/31 09:25:11;;;;;;;12.30;5.10;;;;;;;;;;5068497;28;20407;-79
2023/03/31 09:27:40;;;;;;;10.73;4.50;;;;;;;;;;5085695;28;20434;-79
2023/03/31 09:30:09;;;;;;;12.55;4.38;;;;;;;;;;5099210;28;20944;-78
2023/03/31 09:32:36;;;;;;;9.88;4.70;;;;;;;;;;5087558;28;20444;-79
2023/03/31 09:35:24;;;;;;;11.35;4.50;;;;;;;;;;5065264;28;20491;-80
2023/03/31 09:37:56;;;;;;;9.90;3.90;;;;;;;;;;5084138;28;20410;-77
2023/03/31 09:40:24;;;;;;;12.40;4.20;;;;;;;;;;5034798;28;20467;-79
2023/03/31 09:42:59;;;;;;;9.10;4.18;;;;;;;;;;5042019;28;20424;-78
2023/03/31 09:45:25;;;;;;;8.68;4.47;;;;;;;;;;5065875;28;20413;-78
2023/03/31 09:47:54;;;;;;;9.40;4.32;;;;;;;;;;5071780;28;20553;-79
2023/03/31 09:50:21;;;;;;;10.82;4.35;;;;;;;;;;5071494;28;20418;-81
2023/03/31 09:52:50;;;;;;;8.98;4.50;;;;;;;;;;5065049;28;20416;-78
2023/03/31 09:55:21;;;;;;;10.82;4.20;;;;;;;;;;5070853;28;20793;-78
2023/03/31 09:57:47;;;;;;;9.30;4.22;;;;;;;;;;5071797;28;20422;-79
2023/03/31 10:00:13;;;;;;;9.73;4.25;;;;;;;;;;5048824;28;20453;-79
2023/03/31 10:02:44;;;;;;;9.73;4.20;;;;;;;;;;5068649;28;20426;-79
2023/03/31 10:05:30;;;;;;;12.38;5.90;;;;;;;;;;5072965;28;20430;-79
2023/03/31 10:08:11;;;;;;;9.35;4.20;;;;;;;;;;5073146;28;20826;-79
2023/03/31 10:10:38;;;;;;;7.45;4.55;;;;;;;;;;5066863;28;21111;-79
2023/03/31 10:13:08;;;;;;;7.82;3.97;;;;;;;;;;5084443;28;20414;-79
2023/03/31 10:15:37;;;;;;;11.70;4.30;;;;;;;;;;5057419;28;20495;-79
2023/03/31 10:18:03;;;;;;;7.43;3.95;;;;;;;;;;5091042;28;20450;-79
2023/03/31 10:20:29;;;;;;;10.95;3.70;;;;;;;;;;5038939;28;20418;-78
2023/03/31 10:22:56;;;;;;;6.80;3.50;;;;;;;;;;5070444;28;20747;-79
2023/03/31 10:25:24;;;;;;;8.80;3.70;;;;;;;;;;5070229;28;20934;-78
2023/03/31 10:27:55;;;;;;;9.50;3.73;;;;;;;;;;5088157;28;20452;-79
2023/03/31 10:30:23;;;;;;;9.60;3.40;;;;;;;;;;5059588;28;20421;-80
2023/03/31 10:32:49;;;;;;;6.25;3.33;;;;;;;;;;5075010;28;20500;-88
2023/03/31 10:35:35;;;;;;;7.32;3.58;;;12.20;99.90;;;;;;5075979;28;20414;-86
2023/03/31 10:38:04;;;;;;;7.03;3.60;;;;;;;;;;5075333;28;20489;-88
2023/03/31 10:40:31;;;;;;;8.55;3.58;;;;;;;;;;5069450;28;20450;-88
2023/03/31 10:42:59;;;;;;;7.57;3.70;;;;;;;;;;5090916;28;20454;-87
2023/03/31 10:45:26;;;;;;;8.07;3.50;;;;;;;;;;5092131;28;20808;-88
2023/03/31 10:47:54;;;;;;;11.40;3.90;;;;;;;;;;5093248;28;20481;-87
2023/03/31 10:50:35;;;;;;;8.18;3.45;;;12.00;99.90;;;;;;5092800;28;20410;-85
2023/03/31 10:53:10;;;;;;;8.05;3.72;;;12.10;99.90;;;;;;5083480;28;20435;-87
2023/03/31 10:56:02;;;;;;;9.48;3.90;;;12.50;99.90;;;;;;5075642;28;20433;-87
2023/03/31 10:58:28;;;;;;;11.73;3.80;;;;;;;;;;5074135;28;20426;-86
2023/03/31 11:01:34;;;;;;;9.37;3.47;;;12.60;99.90;;;;;;5071274;28;20854;-84
2023/03/31 11:04:04;;;;;;;9.90;3.83;;;;;;;;;;5044608;28;20544;-86
2023/03/31 11:06:30;;;;;;;8.13;3.65;;;;;;;;;;5069690;28;20501;-86
2023/03/31 11:09:23;;;;;;;9.18;3.53;;;;;;;;;;5069059;28;21318;-88
2023/03/31 11:12:01;;;;;;;8.20;3.58;;;;;;;;;;5053383;28;20426;-87
2023/03/31 11:14:30;;;;;;;8.30;3.60;;;;;;;;;;5105235;28;20865;-86
2023/03/31 11:17:15;;;;;;;10.63;3.95;;;;;;;;;;5070301;28;20467;-85
2023/03/31 11:19:41;;;;;;;9.57;3.50;;;;;;;;;;5066139;28;20418;-82
2023/03/31 11:22:13;;;;;;;9.70;3.35;;;;;;;;;;5071580;28;20414;-87
2023/03/31 11:25:18;;;;;;;8.05;3.05;;;13.10;99.90;;;;;;5082332;28;20457;-87
2023/03/31 11:28:13;;;;;;;8.57;3.40;;;;;;;;;;5073667;28;20474;-87
2023/03/31 11:30:54;;;;;;;11.20;3.60;;;;;;;;;;5083114;28;20997;-86
2023/03/31 11:33:20;;;;;;;10.00;3.60;;;;;;;;;;5071171;28;20467;-86
2023/03/31 11:35:55;;;;;;;11.05;3.75;;;;;;;;;;5089789;28;20456;-87
2023/03/31 11:38:30;;;;;;;11.90;4.10;;;;;;;;;;5088540;28;20414;-87
2023/03/31 11:40:56;;;;;;;8.60;3.50;;;;;;;;;;5074325;28;20563;-90
2023/03/31 11:43:39;;;;;;;8.70;3.65;;;;;;;;;;5085804;28;20491;-87
2023/03/31 11:46:12;;;;;;;9.27;3.25;;;;;;;;;;5065728;28;20413;-88
2023/03/31 11:48:50;;;;;;;6.97;3.13;;;;;;;;;;5074037;28;21005;-89
2023/03/31 11:51:27;;;;;;;8.25;3.25;;;;;;;;;;5061342;28;20416;-88
2023/03/31 11:53:56;;;;;;;9.40;3.63;;;13.20;99.90;;;;;;5102297;28;20451;-91
2023/03/31 11:56:22;;;;;;;7.40;2.95;;;;;;;;;;5059575;28;20418;-90
2023/03/31 11:58:52;;;;;;;7.18;2.95;;;;;;;;;;5089836;28;20436;-90
2023/03/31 12:01:31;;;;;;;8.55;3.65;;;;;;;;;;5057026;28;20508;-90
2023/03/31 12:03:57;;;;;;;8.13;3.15;;;;;;;;;;5062542;28;20450;-90
2023/03/31 12:06:25;;;;;;;8.13;3.10;;;;;;;;;;5057323;28;20422;-89
2023/03/31 12:09:09;;;;;;;10.82;3.42;;;;;;;;;;5075782;28;20977;-88
2023/03/31 12:11:48;;;;;;;9.83;3.37;;;;;;;;;;5071070;28;20483;-89
2023/03/31 12:14:30;;;;;;;9.20;3.63;;;12.50;99.90;;;;;;5108919;28;20935;-89
2023/03/31 12:17:11;;;;;;;10.63;3.70;;;12.80;99.90;;;;;;5062521;28;20426;-89
2023/03/31 12:19:40;;;;;;;9.27;3.35;;;;;;;;;;5107369;28;20406;-88
2023/03/31 12:22:10;;;;;;;9.25;3.45;;;;;;;;;;5093454;28;20927;-88
2023/03/31 12:24:36;;;;;;;12.65;4.30;;;;;;;;;;5073109;28;20809;-88
2023/03/31 12:27:08;;;;;;;12.05;4.05;;;;;;;;;;5058593;28;20418;-86
2023/03/31 12:29:46;;;;;;;12.18;4.05;;;;;;;;;;5074341;28;20418;-87
2023/03/31 12:32:20;;;;;;;8.40;3.33;;;;;;;;;;5071548;28;20421;-86
2023/03/31 12:35:15;;;;;;;13.73;4.22;;;12.70;99.90;;;;;;5071878;28;20961;-87
2023/03/31 12:37:55;;;;;;;10.95;4.25;;;;;;;;;;5067013;28;20401;-86
2023/03/31 12:40:39;;;;;;;10.57;3.75;;;;;;;;;;5086239;28;20440;-86
2023/03/31 12:43:42;;;;;;;10.43;4.07;;;13.00;99.90;;;;;;5081456;28;20587;-86
2023/03/31 12:46:24;;;;;;;11.85;4.40;;;;;;;;;;5082432;28;20450;-86
2023/03/31 12:49:05;;;;;;;11.90;3.92;;;;;;;;;;5079993;28;20501;-86
2023/03/31 12:51:51;;;;;;;11.55;4.18;;;;;;;;;;5069533;28;20406;-86
2023/03/31 12:54:26;;;;;;;9.98;4.43;;;;;;;;;;5099914;28;20427;-86
2023/03/31 12:57:01;;;;;;;8.07;3.35;;;;;;;;;;5068883;28;20429;-85
2023/03/31 12:59:31;;;;;;;11.20;4.22;;;;;;;;;;5063650;28;21921;-86
2023/03/31 13:02:09;;;;;;;8.45;3.67;;;;;;;;;;5086038;28;20421;-86
2023/03/31 13:04:36;;;;;;;16.13;4.20;;;13.40;99.90;;;;;;5064601;28;20423;-85
2023/03/31 13:07:03;;;;;;;8.07;3.35;;;;;;;;;;5063609;28;20426;-86
2023/03/31 13:09:32;;;;;;;11.02;4.05;;;;;;;;;;5098950;28;20481;-84
2023/03/31 13:12:05;;;;;;;14.40;3.75;;;;;;;;;;5070020;28;20449;-81
2023/03/31 13:14:37;;;;;;;11.60;3.92;;;13.20;99.90;;;;;;5067460;28;20426;-83
2023/03/31 13:17:20;;;;;;;11.90;4.78;;;;;;;;;;5053734;28;20427;-83
2023/03/31 13:19:47;;;;;;;17.08;4.80;;;;;;;;;;5104759;28;20406;-84
2023/03/31 13:22:31;;;;;;;14.87;4.27;;;;;;;;;;5053277;28;20473;-84
2023/03/31 13:25:34;;;;;;;13.13;4.73;;;13.10;99.90;;;;;;5053530;28;20488;-84
2023/03/31 13:28:12;;;;;;;10.90;3.83;;;;;;;;;;5062407;28;20415;-86
2023/03/31 13:30:38;;;;;;;13.00;3.47;;;;;;;;;;5075904;28;20416;-88
2023/03/31 13:33:09;;;;;;;10.77;2.97;;;;;;;;;;5090954;28;20415;-86
2023/03/31 13:35:36;;;;;;;7.65;2.42;;;;;;;;;;5071842;28;20440;-88
2023/03/31 13:38:06;;;;;;;6.70;1.80;;;;;;;;;;5068960;28;20415;-86
2023/03/31 13:40:44;;;;;;;3.67;1.50;;;;;;;;;;5075447;28;20487;-85
2023/03/31 13:43:22;;;;;;;5.78;1.80;;;;;;;;;;5058099;28;20803;-87
2023/03/31 13:46:12;;;;;;;3.85;1.58;;;12.40;99.90;;;;;;5058910;28;20404;-85
2023/03/31 13:48:50;;;;;;;8.00;2.58;;;12.70;99.90;;;;;;5059153;28;20498;-84
2023/03/31 13:51:26;;;;;;;8.25;2.10;;;;;;;;;;5091598;28;20427;-85
2023/03/31 13:54:04;;;;;;;6.28;1.88;;;;;;;;;;5089698;28;20432;-84
2023/03/31 13:56:45;;;;;;;6.35;1.90;;;;;;;;;;5060104;28;20446;-78
2023/03/31 13:59:30;;;;;;;4.82;1.80;;;;;;;;;;5070501;28;20502;-79
2023/03/31 14:02:25;;;;;;;7.18;1.85;;;12.80;99.90;;;;;;5055085;28;20442;-80
2023/03/31 14:04:52;;;;;;;8.63;2.40;;;;;;;;;;5072291;28;20411;-79
2023/03/31 14:07:21;;;;;;;8.00;2.10;;;;;;;;;;5052509;28;20420;-81
2023/03/31 14:09:50;;;;;;;6.40;2.30;;;;;;;;;;5070567;28;20457;-80
2023/03/31 14:12:20;;;;;;;7.88;2.17;;;;;;;;;;5040315;28;20401;-80
2023/03/31 14:14:47;;;;;;;9.35;2.50;;;;;;;;;;5047761;28;20508;-79
2023/03/31 14:17:14;;;;;;;7.55;2.25;;;;;;;;;;5041004;28;20423;-78
2023/03/31 14:19:43;;;;;;;6.72;2.10;;;;;;;;;;5026747;28;20494;-79
2023/03/31 14:22:09;;;;;;;8.82;1.90;;;;;;;;;;5051520;28;20424;-78
2023/03/31 14:24:44;;;;;;;7.45;2.03;;;;;;;;;;5048654;28;20421;-80
2023/03/31 14:27:17;;;;;;;6.05;1.92;;;;;;;;;;5041514;28;20419;-80
2023/03/31 14:29:56;;;;;;;6.20;1.90;;;;;;;;;;5066558;28;20423;-79
2023/03/31 14:32:27;;;;;;;7.30;1.80;;;;;;;;;;5062875;28;20421;-78
2023/03/31 14:34:57;;;;;;;6.35;2.42;;;;;;;;;;5040283;28;20425;-80
2023/03/31 14:37:23;;;;;;;7.95;2.50;;;;;;;;;;5057680;28;20841;-79
2023/03/31 14:39:55;;;;;;;7.18;2.10;;;;;;;;;;5054912;28;20415;-80
2023/03/31 14:42:27;;;;;;;8.23;2.70;;;;;;;;;;5052182;28;20455;-79
2023/03/31 14:44:57;;;;;;;6.45;1.90;;;;;;;;;;5071562;28;20477;-80